Nearby METAR Reports

 

KOJC - Olathe/Executive, Kansas, USA
Distance from station: S 9mi, 15km
Updated: Thu, 17-Jan-2019 7:12am CST
Mist, Overcast
Mist, Overcast
 Wind from NNW
Wind: NNW 6 mph , 9 km/h
Temperature: 32°F , 0°C
Wind Chill: 26°F , -3°C
Dew Point: 32°F , 0°C
Humidity: 100%
Barometer: 30.07 inHg , 1018.3 hPa
Summary: Mist
Clouds: Overcast
Visibility: 3 miles , 5 km
Cloud details: Overcast 200 ft
2019/01/17 13:12 KOJC 171312Z 34005KT 3SM BR OVC002 00/00 A3007 RMK AO2 T00000000
KMKC - Kansas City/Dntn, Missouri, USA
Distance from station: NE 12mi, 20km
Updated: Thu, 17-Jan-2019 7:15am CST
Overcast
Overcast
 Wind from NW
Wind: NW 7 mph , 11 km/h
Temperature: 34°F , 1°C
Wind Chill: 28°F , -2°C
Dew Point: 30°F , -1°C
Humidity: 87%
Barometer: 30.09 inHg , 1019 hPa
Clouds: Overcast
Visibility: 7 miles , 11 km
Cloud details: Overcast 400 ft
2019/01/17 13:15 KMKC 171315Z AUTO 32006KT 7SM OVC004 01/M01 A3009 RMK AO2 T00111006
 
KIXD - Olathe/Industria, Kansas, USA
Distance from station: SSW 14mi, 22km
Updated: Thu, 17-Jan-2019 7:06am CST
Mist, Overcast
Mist, Overcast
 Wind from NW
Wind: NW 8 mph , 13 km/h
Temperature: 32°F , 0°C
Wind Chill: 25°F , -4°C
Dew Point: 32°F , 0°C
Humidity: 100%
Barometer: 30.08 inHg , 1018.6 hPa
Summary: Mist
Clouds: Overcast
Visibility: 3 miles , 5 km
Cloud details: Overcast 300 ft
2019/01/17 13:06 KIXD 171306Z 32007KT 3SM BR OVC003 00/00 A3008 RMK AO2 I1001 T00000000
KLXT - Lees Summit Muni, Missouri, USA
Distance from station: E 21mi, 33km
Updated: Thu, 17-Jan-2019 7:32am CST
Fog, Overcast
Fog, Overcast
 Wind from NNW
Wind: NNW 8 mph , 13 km/h
Barometer: 30.08 inHg , 1018.6 hPa
Summary: Fog
Clouds: Overcast
Visibility: 1/4 mile , 2 km
Cloud details: Overcast 200 ft
2019/01/17 13:32 KLXT 171332Z AUTO 34007KT 1/4SM FG VV002 A3008 RMK AO2 I1001 $
 
KMCI - Kansas City/Intl, Missouri, USA
Distance from station: N 22mi, 35km
Updated: Thu, 17-Jan-2019 6:53am CST
Mist, Overcast
Mist, Overcast
 Wind from NNE
Wind: NNE 8 mph , 13 km/h
Temperature: 32°F , 0°C
Wind Chill: 25°F , -4°C
Dew Point: 30°F , -1°C
Humidity: 93%
Barometer: 30.07 inHg , 1018.3 hPa
Summary: Mist
Clouds: Overcast
Visibility: 1/2 mile , 2 km
Cloud details: Overcast 200 ft
2019/01/17 12:53 KMCI 171253Z 02007KT 1/2SM R19R/3000VP6000FT BR VV002 00/M01 A3007 RMK AO2 SFC VIS 3/4 SLP190 I1000 T00001006
KLWC - Lawrence, Kansas, USA
Distance from station: W 25mi, 40km
Updated: Thu, 17-Jan-2019 7:09am CST
Mist, Overcast
Mist, Overcast
 Wind from NNW
Wind: NNW 8 mph , 13 km/h
Temperature: 34°F , 1°C
Wind Chill: 27°F , -3°C
Dew Point: 30°F , -1°C
Humidity: 87%
Barometer: 30.09 inHg , 1019 hPa
Summary: Mist
Clouds: Overcast
Visibility: 2 miles , 3 km
Cloud details: Overcast 400 ft
2019/01/17 13:09 KLWC 171309Z AUTO 33007KT 2SM BR OVC004 01/M01 A3009 RMK AO2 T00061006
 
KGPH - Mosby, Missouri, USA
Distance from station: NE 34mi, 54km
Updated: Thu, 17-Jan-2019 6:55am CST
Mist, Overcast
Mist, Overcast
 Wind from N
Wind: N 6 mph , 9 km/h
Temperature: 32°F , 0°C
Wind Chill: 26°F , -3°C
Dew Point: 32°F , 0°C
Humidity: 100%
Barometer: 30.08 inHg , 1018.6 hPa
Summary: Mist
Clouds: Overcast
Visibility: 4 miles , 6 km
Cloud details: Overcast 400 ft
2019/01/17 12:55 KGPH 171255Z AUTO 36005KT 4SM BR OVC004 00/00 A3008 RMK AO2
KTOP - Topeka, Kansas, USA
Distance from station: W 48mi, 77km
Updated: Thu, 17-Jan-2019 6:53am CST
Mist, Overcast
Mist, Overcast
 Wind from NNW
Wind: NNW 5 mph , 7 km/h
Temperature: 32°F , 0°C
Wind Chill: 27°F , -3°C
Dew Point: 30°F , -1°C
Humidity: 93%
Barometer: 30.09 inHg , 1019 hPa
Summary: Mist
Clouds: Overcast
Visibility: 4 miles , 6 km
Cloud details: Overcast 400 ft
2019/01/17 12:53 KTOP 171253Z 34004KT 4SM BR OVC004 00/M01 A3009 RMK AO2 SLP198 T00001011
 
KFOE - Topeka/Forbes, Kansas, USA
Distance from station: W 48mi, 78km
Updated: Thu, 17-Jan-2019 7:06am CST
Mist, Overcast
Mist, Overcast
 Wind from NNW
Wind: NNW 8 mph , 13 km/h
Temperature: 32°F , 0°C
Wind Chill: 25°F , -4°C
Dew Point: 30°F , -1°C
Humidity: 93%
Barometer: 30.08 inHg , 1018.6 hPa
Summary: Mist
Clouds: Overcast
Visibility: 1 3/4 miles , 5 km
Cloud details: Overcast 300 ft
2019/01/17 13:06 KFOE 171306Z 33007KT 1 3/4SM BR OVC003 00/M01 A3008 RMK AO2 T00001011